createdAt,value
2023-02-12T00:00:55.903Z,100.00
2023-02-12T00:01:57.337Z,99.50
2023-02-12T00:02:58.774Z,99.46
2023-02-12T00:04:00.691Z,99.46
2023-02-12T00:05:02.192Z,99.46
2023-02-12T00:06:04.310Z,99.57
2023-02-12T00:07:05.749Z,99.53
2023-02-12T00:08:08.443Z,99.46
2023-02-12T00:09:09.891Z,99.31
2023-02-12T00:10:12.049Z,99.09
2023-02-12T00:11:17.114Z,98.99
2023-02-12T00:12:18.568Z,98.92
2023-02-12T00:13:19.996Z,98.93
2023-02-12T00:14:21.457Z,98.86
2023-02-12T00:15:22.953Z,98.76
2023-02-12T00:16:26.842Z,98.79
2023-02-12T00:17:28.268Z,98.47
2023-02-12T00:18:29.665Z,99.21
2023-02-12T00:19:31.640Z,98.79
2023-02-12T00:20:33.360Z,99.30
2023-02-12T00:21:35.580Z,98.73
2023-02-12T00:22:37.114Z,98.73
2023-02-12T00:23:41.058Z,98.68
2023-02-12T00:24:42.493Z,98.64
2023-02-12T00:25:43.886Z,98.68
2023-02-12T00:26:45.349Z,98.75
2023-02-12T00:27:46.785Z,99.09
2023-02-12T00:28:48.592Z,98.44
2023-02-12T00:29:50.003Z,98.59
2023-02-12T00:30:51.498Z,98.72
2023-02-12T00:31:53.053Z,99.07
2023-02-12T00:32:54.476Z,99.24
2023-02-12T00:33:57.015Z,99.06
2023-02-12T00:34:58.521Z,99.41
2023-02-12T00:36:00.046Z,99.17
2023-02-12T00:37:01.484Z,99.52
2023-02-12T00:38:02.911Z,99.40
2023-02-12T00:39:04.310Z,99.78
2023-02-12T00:40:06.926Z,99.58
2023-02-12T00:41:11.386Z,99.59
2023-02-12T00:42:12.860Z,99.56
2023-02-12T00:43:14.489Z,99.00
2023-02-12T00:44:15.898Z,99.28
2023-02-12T00:45:17.442Z,99.60
2023-02-12T00:46:19.504Z,99.39
2023-02-12T00:47:20.870Z,99.45
2023-02-12T00:48:22.289Z,99.29
2023-02-12T00:49:24.512Z,99.99
2023-02-12T00:50:25.997Z,99.42
2023-02-12T00:51:27.456Z,99.79
2023-02-12T00:52:28.900Z,99.68
2023-02-12T00:53:31.618Z,99.44
2023-02-12T00:54:33.133Z,99.09
2023-02-12T00:55:34.762Z,99.28
2023-02-12T00:56:36.375Z,99.38
2023-02-12T00:57:37.800Z,99.04
2023-02-12T00:58:39.237Z,99.41
2023-02-12T00:59:42.201Z,99.24
2023-02-12T01:00:44.138Z,98.81
2023-02-12T01:01:45.668Z,98.70
2023-02-12T01:02:47.151Z,99.04
2023-02-12T01:03:48.729Z,99.18
2023-02-12T01:04:50.208Z,99.09
2023-02-12T01:05:52.456Z,99.64
2023-02-12T01:06:53.975Z,99.11
2023-02-12T01:07:56.195Z,99.46
2023-02-12T01:08:57.619Z,99.32
2023-02-12T01:09:59.034Z,99.59
2023-02-12T01:11:03.461Z,98.91
2023-02-12T01:12:05.312Z,99.30
2023-02-12T01:13:07.036Z,99.33
2023-02-12T01:14:08.712Z,99.84
2023-02-12T01:15:10.527Z,99.64
2023-02-12T01:16:18.024Z,99.35
2023-02-12T01:17:19.470Z,99.44
2023-02-12T01:18:20.949Z,99.99
2023-02-12T01:19:22.352Z,99.69
2023-02-12T01:20:24.968Z,99.33
2023-02-12T01:21:29.059Z,99.34
2023-02-12T01:22:30.472Z,99.92
2023-02-12T01:23:31.961Z,99.59
2023-02-12T01:24:33.523Z,99.92
2023-02-12T01:25:34.975Z,100.00
2023-02-12T01:26:36.679Z,100.00
2023-02-12T01:27:38.562Z,100.00
2023-02-12T01:28:41.474Z,100.00
2023-02-12T01:29:45.838Z,99.77
2023-02-12T01:30:47.315Z,100.00
2023-02-12T01:31:48.883Z,100.00
2023-02-12T01:32:50.384Z,100.00
2023-02-12T01:33:53.898Z,100.00
2023-02-12T01:34:55.461Z,100.00
2023-02-12T01:35:57.129Z,100.00
2023-02-12T01:36:58.638Z,99.92
2023-02-12T01:38:00.087Z,100.00
2023-02-12T01:39:02.944Z,99.92
2023-02-12T01:40:06.751Z,100.00
2023-02-12T01:41:18.249Z,100.00
2023-02-12T01:42:19.741Z,100.00
2023-02-12T01:43:21.132Z,100.00
2023-02-12T01:44:25.608Z,99.95
2023-02-12T01:45:49.994Z,100.00
2023-02-12T01:47:03.379Z,100.00
2023-02-12T01:48:04.834Z,100.00
2023-02-12T01:49:12.536Z,100.00
2023-02-12T01:50:18.850Z,100.00
2023-02-12T01:51:22.319Z,100.00
2023-02-12T01:52:28.425Z,100.00
2023-02-12T01:53:35.448Z,100.00
2023-02-12T01:54:37.940Z,100.00
2023-02-12T01:55:39.905Z,99.89
2023-02-12T01:56:42.323Z,100.00
2023-02-12T01:57:47.393Z,100.00
2023-02-12T01:58:52.503Z,100.00
2023-02-12T01:59:56.541Z,100.00
2023-02-12T02:01:00.657Z,100.00
2023-02-12T02:02:03.187Z,100.00
2023-02-12T02:03:04.746Z,100.00
2023-02-12T02:04:12.146Z,100.00
2023-02-12T02:05:18.212Z,100.00
2023-02-12T02:06:35.899Z,100.00
2023-02-12T02:07:37.640Z,100.00
2023-02-12T02:08:40.559Z,100.00
2023-02-12T02:09:42.505Z,100.00
2023-02-12T02:10:43.979Z,100.00
2023-02-12T02:12:04.710Z,100.00
2023-02-12T02:13:25.532Z,100.00
2023-02-12T02:14:33.145Z,99.95
2023-02-12T02:15:36.963Z,100.00
2023-02-12T02:16:43.738Z,100.00
2023-02-12T02:18:02.470Z,100.00
2023-02-12T02:19:48.447Z,99.98
2023-02-12T02:21:19.467Z,99.99
2023-02-12T02:22:42.346Z,100.00
2023-02-12T02:24:19.143Z,99.97
2023-02-12T02:25:45.579Z,99.86
2023-02-12T02:27:08.615Z,100.00
2023-02-12T02:28:35.030Z,100.00
2023-02-12T02:29:45.446Z,100.00
2023-02-12T02:31:00.368Z,99.83
2023-02-12T02:32:46.448Z,99.63
2023-02-12T02:34:24.815Z,99.50
2023-02-12T02:35:34.087Z,99.83
2023-02-12T02:37:08.510Z,99.50
2023-02-12T02:38:39.138Z,99.19
2023-02-12T02:39:48.779Z,99.24
2023-02-12T02:41:09.016Z,99.50
2023-02-12T02:42:30.994Z,99.50
2023-02-12T02:43:38.706Z,99.33
2023-02-12T02:44:50.695Z,99.72
2023-02-12T02:45:59.947Z,99.38
2023-02-12T02:47:05.543Z,99.13
2023-02-12T02:48:14.435Z,99.11
2023-02-12T02:49:21.349Z,99.02
2023-02-12T02:50:25.924Z,99.37
2023-02-12T02:51:33.475Z,99.39
2023-02-12T02:52:53.786Z,99.82
2023-02-12T02:54:11.118Z,100.00
2023-02-12T02:55:16.860Z,100.00
2023-02-12T02:56:21.970Z,100.00
2023-02-12T02:57:30.509Z,99.75
2023-02-12T02:58:39.175Z,99.48
2023-02-12T02:59:46.426Z,99.92
2023-02-12T03:00:59.147Z,99.32
2023-02-12T03:02:16.626Z,99.13
2023-02-12T03:03:22.128Z,99.72
2023-02-12T03:04:56.068Z,100.00
2023-02-12T03:06:05.116Z,99.34
2023-02-12T03:07:11.659Z,99.29
2023-02-12T03:08:46.955Z,99.49
2023-02-12T03:09:54.168Z,99.16
2023-02-12T03:11:09.272Z,99.39
2023-02-12T03:12:16.588Z,98.81
2023-02-12T03:13:39.878Z,98.61
2023-02-12T03:15:04.983Z,98.81
2023-02-12T03:16:11.749Z,98.53
2023-02-12T03:17:26.673Z,98.65
2023-02-12T03:18:34.169Z,99.05
2023-02-12T03:20:02.931Z,98.81
2023-02-12T03:21:14.247Z,99.28
2023-02-12T03:22:21.338Z,99.20
2023-02-12T03:23:27.678Z,99.35
2023-02-12T03:24:38.888Z,99.23
2023-02-12T03:25:54.269Z,99.39
2023-02-12T03:27:03.125Z,99.46
2023-02-12T03:28:09.672Z,99.09
2023-02-12T03:29:11.817Z,98.82
2023-02-12T03:30:14.148Z,99.52
2023-02-12T03:31:18.668Z,99.51
2023-02-12T03:32:33.717Z,99.55
2023-02-12T03:33:56.866Z,99.46
2023-02-12T03:35:10.351Z,99.17
2023-02-12T03:36:37.991Z,99.23
2023-02-12T03:37:51.780Z,99.15
2023-02-12T03:38:57.590Z,99.60
2023-02-12T03:40:13.869Z,99.16
2023-02-12T03:41:24.519Z,99.14
2023-02-12T03:43:27.761Z,98.66
2023-02-12T03:44:53.328Z,99.08
2023-02-12T03:46:00.289Z,98.52
2023-02-12T03:47:16.078Z,98.92
2023-02-12T03:48:33.094Z,98.67
2023-02-12T03:50:02.546Z,99.07
2023-02-12T03:51:28.412Z,98.90
2023-02-12T03:52:30.398Z,99.43
2023-02-12T03:53:32.496Z,99.21
2023-02-12T03:54:33.830Z,99.35
2023-02-12T03:55:38.478Z,99.50
2023-02-12T03:56:57.291Z,99.22
2023-02-12T03:58:03.206Z,99.09
2023-02-12T03:59:05.773Z,99.46
2023-02-12T04:00:14.912Z,99.41
2023-02-12T04:01:17.270Z,99.46
2023-02-12T04:02:19.547Z,99.19
2023-02-12T04:03:21.479Z,99.07
2023-02-12T04:04:24.513Z,99.44
2023-02-12T04:05:27.858Z,99.47
2023-02-12T04:06:29.606Z,99.96
2023-02-12T04:07:31.087Z,99.66
2023-02-12T04:08:33.039Z,99.18
2023-02-12T04:09:34.538Z,98.97
2023-02-12T04:10:58.383Z,99.03
2023-02-12T04:12:30.832Z,99.05
2023-02-12T04:14:13.167Z,99.31
2023-02-12T04:16:03.233Z,99.34
2023-02-12T04:17:26.973Z,99.70
2023-02-12T04:18:41.110Z,99.14
2023-02-12T04:19:57.565Z,99.81
2023-02-12T04:21:22.577Z,99.76
2023-02-12T04:22:36.459Z,99.29
2023-02-12T04:23:48.858Z,99.14
2023-02-12T04:25:21.558Z,99.70
2023-02-12T04:26:43.972Z,99.55
2023-02-12T04:27:57.616Z,99.00
2023-02-12T04:29:32.241Z,99.35
2023-02-12T04:30:48.470Z,99.16
2023-02-12T04:31:59.315Z,98.93
2023-02-12T04:33:04.018Z,99.20
2023-02-12T04:34:21.958Z,98.91
2023-02-12T04:35:32.373Z,98.85
2023-02-12T04:36:39.016Z,98.90
2023-02-12T04:37:48.957Z,98.66
2023-02-12T04:39:21.814Z,99.04
2023-02-12T04:40:23.907Z,99.37
2023-02-12T04:41:25.855Z,99.18
2023-02-12T04:42:27.374Z,99.18
2023-02-12T04:43:37.161Z,98.93
2023-02-12T04:44:41.509Z,99.42
2023-02-12T04:45:42.916Z,99.17
2023-02-12T04:46:44.510Z,99.02
2023-02-12T04:47:46.578Z,99.41
2023-02-12T04:48:55.744Z,99.18
2023-02-12T04:49:57.144Z,99.36
2023-02-12T04:50:58.582Z,99.07
2023-02-12T04:52:00.006Z,100.00
2023-02-12T04:53:01.543Z,98.99
2023-02-12T04:54:03.022Z,99.58
2023-02-12T04:55:04.602Z,99.31
2023-02-12T04:56:06.365Z,99.16
2023-02-12T04:57:09.079Z,99.54
2023-02-12T04:58:10.587Z,99.13
2023-02-12T04:59:12.946Z,98.94
2023-02-12T05:00:15.112Z,99.28
2023-02-12T05:01:16.580Z,99.28
2023-02-12T05:02:18.043Z,99.14
2023-02-12T05:03:19.483Z,99.16
2023-02-12T05:04:20.944Z,99.63
2023-02-12T05:05:22.431Z,99.10
2023-02-12T05:06:23.893Z,99.14
2023-02-12T05:07:25.354Z,98.87
2023-02-12T05:08:26.750Z,98.93
2023-02-12T05:09:28.141Z,99.18
2023-02-12T05:10:29.626Z,99.45
2023-02-12T05:11:31.272Z,99.46
2023-02-12T05:12:32.675Z,100.00
2023-02-12T05:13:34.558Z,99.43
2023-02-12T05:14:36.120Z,99.37
2023-02-12T05:15:39.702Z,99.31
2023-02-12T05:16:41.437Z,98.91
2023-02-12T05:17:42.835Z,99.15
2023-02-12T05:18:44.478Z,99.38
2023-02-12T05:19:48.105Z,99.30
2023-02-12T05:20:57.927Z,98.98
2023-02-12T05:21:59.339Z,99.32
2023-02-12T05:23:00.807Z,99.14
2023-02-12T05:24:03.153Z,98.82
2023-02-12T05:25:05.416Z,99.22
2023-02-12T05:26:10.493Z,99.48
2023-02-12T05:27:11.887Z,98.95
2023-02-12T05:28:13.421Z,99.11
2023-02-12T05:29:14.810Z,99.32
2023-02-12T05:30:16.497Z,99.49
2023-02-12T05:31:21.383Z,99.48
2023-02-12T05:32:23.888Z,99.24
2023-02-12T05:33:25.283Z,99.27
2023-02-12T05:34:26.985Z,99.46
2023-02-12T05:35:28.411Z,99.39
2023-02-12T05:36:29.827Z,99.50
2023-02-12T05:37:31.489Z,99.27
2023-02-12T05:38:34.080Z,99.27
2023-02-12T05:39:35.511Z,99.69
2023-02-12T05:40:37.090Z,99.66
2023-02-12T05:41:38.479Z,99.66
2023-02-12T05:42:39.943Z,99.94
2023-02-12T05:43:42.701Z,100.00
2023-02-12T05:44:44.136Z,99.90
2023-02-12T05:45:45.661Z,100.00
2023-02-12T05:46:47.152Z,100.00
2023-02-12T05:47:48.664Z,100.00
2023-02-12T05:48:50.239Z,100.00
2023-02-12T05:49:51.942Z,99.90
2023-02-12T05:50:53.592Z,100.00
2023-02-12T05:51:55.038Z,100.00
2023-02-12T05:52:56.442Z,100.00
2023-02-12T05:54:00.488Z,100.00
2023-02-12T05:55:02.089Z,100.00
2023-02-12T05:56:10.737Z,100.00
2023-02-12T05:57:12.168Z,100.00
2023-02-12T05:58:16.001Z,100.00
2023-02-12T05:59:21.570Z,100.00
2023-02-12T06:00:23.127Z,100.00
2023-02-12T06:01:31.807Z,100.00
2023-02-12T06:02:34.361Z,100.00
2023-02-12T06:03:35.807Z,100.00
2023-02-12T06:04:37.283Z,100.00
2023-02-12T06:05:38.736Z,100.00
2023-02-12T06:06:42.164Z,100.00
2023-02-12T06:07:43.667Z,100.00
2023-02-12T06:08:49.016Z,100.00
2023-02-12T06:09:50.634Z,100.00
2023-02-12T06:10:52.124Z,100.00
2023-02-12T06:11:53.565Z,100.00
2023-02-12T06:12:55.642Z,100.00
2023-02-12T06:13:56.963Z,100.00
2023-02-12T06:14:58.398Z,100.00
2023-02-12T06:16:00.599Z,100.00
2023-02-12T06:17:02.246Z,100.00
2023-02-12T06:18:03.850Z,100.00
2023-02-12T06:19:06.441Z,100.00
2023-02-12T06:20:08.113Z,100.00
2023-02-12T06:21:09.548Z,100.00
2023-02-12T06:22:10.942Z,100.00
2023-02-12T06:23:12.342Z,100.00
2023-02-12T06:24:15.518Z,100.00
2023-02-12T06:25:17.031Z,100.00
2023-02-12T06:26:18.923Z,100.00
2023-02-12T06:27:20.375Z,100.00
2023-02-12T06:28:21.785Z,100.00
2023-02-12T06:29:24.041Z,100.00
2023-02-12T06:30:25.474Z,100.00
2023-02-12T06:31:30.405Z,100.00
2023-02-12T06:32:31.927Z,100.00
2023-02-12T06:33:35.525Z,100.00
2023-02-12T06:34:36.948Z,100.00
2023-02-12T06:35:39.058Z,100.00
2023-02-12T06:36:42.333Z,100.00
2023-02-12T06:37:43.766Z,100.00
2023-02-12T06:38:45.758Z,100.00
2023-02-12T06:39:47.207Z,100.00
2023-02-12T06:40:48.665Z,100.00
2023-02-12T06:41:50.434Z,100.00
2023-02-12T06:42:51.937Z,100.00
2023-02-12T06:43:53.361Z,100.00
2023-02-12T06:44:54.766Z,100.00
2023-02-12T06:45:56.936Z,100.00
2023-02-12T06:46:59.076Z,100.00
2023-02-12T06:48:00.539Z,100.00
2023-02-12T06:49:02.304Z,100.00
2023-02-12T06:50:04.099Z,100.00
2023-02-12T06:51:14.658Z,100.00
2023-02-12T06:52:16.105Z,100.00
2023-02-12T06:53:17.553Z,100.00
2023-02-12T06:54:19.106Z,100.00
2023-02-12T06:55:23.565Z,100.00
2023-02-12T06:56:26.762Z,100.00
2023-02-12T06:57:29.745Z,100.00
2023-02-12T06:58:31.426Z,100.00
2023-02-12T06:59:32.843Z,100.00
2023-02-12T07:00:34.310Z,100.00
2023-02-12T07:01:35.766Z,100.00
2023-02-12T07:02:39.005Z,100.00
2023-02-12T07:03:41.628Z,100.00
2023-02-12T07:04:43.062Z,100.00
2023-02-12T07:05:44.539Z,100.00
2023-02-12T07:06:45.952Z,100.00
2023-02-12T07:07:47.496Z,100.00
2023-02-12T07:08:49.360Z,100.00
2023-02-12T07:09:50.784Z,100.00
2023-02-12T07:10:52.250Z,100.00
2023-02-12T07:11:53.674Z,100.00
2023-02-12T07:12:55.085Z,100.00
2023-02-12T07:13:56.554Z,100.00
2023-02-12T07:14:58.000Z,100.00
2023-02-12T07:16:02.669Z,100.00
2023-02-12T07:17:05.420Z,100.00
2023-02-12T07:18:06.897Z,100.00
2023-02-12T07:19:09.616Z,100.00
2023-02-12T07:20:11.504Z,100.00
2023-02-12T07:21:14.096Z,100.00
2023-02-12T07:22:15.517Z,100.00
2023-02-12T07:23:16.933Z,100.00
2023-02-12T07:24:18.460Z,100.00
2023-02-12T07:25:20.016Z,99.80
2023-02-12T07:26:22.103Z,100.00
2023-02-12T07:27:23.441Z,100.00
2023-02-12T07:28:26.792Z,100.00
2023-02-12T07:29:28.292Z,100.00
2023-02-12T07:30:29.811Z,100.00
2023-02-12T07:31:31.831Z,100.00
2023-02-12T07:32:33.594Z,100.00
2023-02-12T07:33:36.321Z,100.00
2023-02-12T07:34:37.762Z,100.00
2023-02-12T07:35:39.208Z,100.00
2023-02-12T07:36:40.697Z,100.00
2023-02-12T07:37:42.117Z,100.00
2023-02-12T07:38:43.813Z,100.00
2023-02-12T07:39:45.266Z,100.00
2023-02-12T07:40:46.697Z,100.00
2023-02-12T07:41:48.153Z,100.00
2023-02-12T07:42:55.100Z,100.00
2023-02-12T07:43:59.130Z,100.00
2023-02-12T07:45:00.568Z,100.00
2023-02-12T07:46:13.181Z,100.00
2023-02-12T07:47:15.917Z,100.00
2023-02-12T07:48:17.305Z,100.00
2023-02-12T07:49:23.417Z,100.00
2023-02-12T07:50:24.845Z,100.00
2023-02-12T07:51:27.633Z,100.00
2023-02-12T07:52:29.086Z,100.00
2023-02-12T07:53:30.518Z,100.00
2023-02-12T07:54:32.027Z,100.00
2023-02-12T07:55:33.467Z,100.00
2023-02-12T07:56:37.527Z,100.00
2023-02-12T07:57:39.006Z,100.00
2023-02-12T07:58:41.933Z,100.00
2023-02-12T07:59:43.333Z,100.00
2023-02-12T08:00:44.769Z,100.00
2023-02-12T08:01:51.012Z,100.00
2023-02-12T08:02:53.473Z,100.00
2023-02-12T08:03:59.056Z,100.00
2023-02-12T08:05:00.496Z,100.00
2023-02-12T08:06:07.552Z,100.00
2023-02-12T08:07:08.993Z,100.00
2023-02-12T08:08:10.413Z,100.00
2023-02-12T08:09:15.018Z,99.78
2023-02-12T08:10:16.646Z,100.00
2023-02-12T08:11:18.827Z,100.00
2023-02-12T08:12:20.266Z,100.00
2023-02-12T08:13:21.633Z,100.00
2023-02-12T08:14:23.487Z,100.00
2023-02-12T08:15:24.896Z,100.00
2023-02-12T08:16:28.328Z,100.00
2023-02-12T08:17:29.800Z,100.00
2023-02-12T08:18:33.102Z,100.00
2023-02-12T08:19:35.222Z,100.00
2023-02-12T08:20:36.677Z,100.00
2023-02-12T08:21:38.236Z,100.00
2023-02-12T08:22:39.673Z,100.00
2023-02-12T08:23:41.571Z,100.00
2023-02-12T08:24:43.290Z,100.00
2023-02-12T08:25:44.737Z,100.00
2023-02-12T08:26:46.188Z,100.00
2023-02-12T08:27:47.595Z,99.58
2023-02-12T08:28:55.289Z,99.80
2023-02-12T08:29:56.747Z,99.06
2023-02-12T08:31:06.758Z,98.94
2023-02-12T08:32:10.587Z,99.58
2023-02-12T08:33:12.104Z,99.51
2023-02-12T08:34:22.455Z,99.24
2023-02-12T08:35:23.944Z,99.50
2023-02-12T08:36:37.938Z,99.37
2023-02-12T08:37:39.409Z,99.55
2023-02-12T08:38:41.888Z,99.24
2023-02-12T08:39:43.406Z,98.39
2023-02-12T08:40:44.926Z,98.44
2023-02-12T08:41:47.489Z,98.76
2023-02-12T08:42:48.940Z,98.96
2023-02-12T08:43:52.555Z,99.09
2023-02-12T08:44:53.980Z,98.81
2023-02-12T08:45:58.142Z,99.14
2023-02-12T08:46:59.954Z,99.33
2023-02-12T08:48:02.069Z,98.71
2023-02-12T08:49:10.114Z,97.49
2023-02-12T08:50:11.490Z,97.11
2023-02-12T08:51:22.766Z,97.92
2023-02-12T08:52:24.259Z,97.71
2023-02-12T08:53:25.800Z,97.16
2023-02-12T08:54:28.683Z,97.39
2023-02-12T08:55:30.244Z,97.55
2023-02-12T08:56:34.198Z,96.23
2023-02-12T08:57:35.852Z,96.42
2023-02-12T08:58:37.994Z,95.30
2023-02-12T08:59:39.419Z,95.12
2023-02-12T09:00:40.869Z,95.72
2023-02-12T09:01:43.919Z,96.47
2023-02-12T09:02:45.397Z,96.68
2023-02-12T09:03:47.671Z,95.76
2023-02-12T09:04:49.061Z,95.09
2023-02-12T09:05:50.549Z,95.86
2023-02-12T09:06:52.221Z,96.47
2023-02-12T09:07:53.781Z,96.43
2023-02-12T09:08:55.655Z,95.85
2023-02-12T09:09:57.114Z,96.14
2023-02-12T09:10:58.932Z,96.65
2023-02-12T09:12:00.355Z,97.44
2023-02-12T09:13:01.774Z,96.83
2023-02-12T09:14:06.468Z,96.97
2023-02-12T09:15:08.130Z,97.36
2023-02-12T09:16:10.051Z,96.75
2023-02-12T09:17:11.466Z,96.45
2023-02-12T09:18:14.494Z,96.92
2023-02-12T09:19:15.969Z,95.38
2023-02-12T09:20:17.594Z,96.41
2023-02-12T09:21:19.735Z,97.26
2023-02-12T09:22:21.168Z,97.92
2023-02-12T09:23:22.654Z,95.48
2023-02-12T09:24:27.768Z,95.82
2023-02-12T09:25:29.611Z,96.91
2023-02-12T09:26:31.175Z,96.78
2023-02-12T09:27:32.626Z,97.44
2023-02-12T09:28:35.236Z,96.10
2023-02-12T09:29:36.820Z,95.21
2023-02-12T09:30:38.947Z,94.98
2023-02-12T09:31:40.506Z,95.34
2023-02-12T09:32:41.987Z,94.02
2023-02-12T09:33:43.938Z,94.60
2023-02-12T09:34:45.339Z,94.49
2023-02-12T09:35:46.752Z,94.33
2023-02-12T09:36:48.188Z,95.12
2023-02-12T09:37:49.638Z,92.94
2023-02-12T09:38:51.103Z,94.51
2023-02-12T09:39:52.551Z,95.56
2023-02-12T09:41:15.206Z,94.94
2023-02-12T09:42:32.300Z,93.17
2023-02-12T09:43:54.005Z,95.23
2023-02-12T09:45:16.494Z,94.10
2023-02-12T09:46:31.551Z,92.11
2023-02-12T09:47:45.091Z,92.35
2023-02-12T09:48:58.796Z,92.86
2023-02-12T09:50:38.760Z,94.58
2023-02-12T09:51:43.992Z,92.79
2023-02-12T09:52:45.818Z,91.50
2023-02-12T09:53:49.385Z,94.06
2023-02-12T09:54:51.280Z,93.53
2023-02-12T09:55:52.757Z,93.47
2023-02-12T09:57:00.799Z,93.31
2023-02-12T09:58:04.228Z,93.52
2023-02-12T09:59:08.770Z,92.75
2023-02-12T10:00:25.283Z,93.19
2023-02-12T10:01:28.363Z,93.46
2023-02-12T10:02:29.929Z,91.27
2023-02-12T10:03:31.485Z,92.49
2023-02-12T10:04:33.242Z,91.25
2023-02-12T10:05:43.200Z,92.29
2023-02-12T10:07:16.475Z,92.81
2023-02-12T10:08:46.803Z,92.53
2023-02-12T10:10:10.791Z,90.80
2023-02-12T10:11:14.978Z,89.96
2023-02-12T10:12:39.610Z,90.45
2023-02-12T10:13:48.716Z,90.77
2023-02-12T10:15:02.857Z,91.25
2023-02-12T10:16:24.399Z,91.23
2023-02-12T10:17:57.594Z,90.45
2023-02-12T10:19:34.843Z,91.99
2023-02-12T10:21:03.630Z,90.84
2023-02-12T10:22:19.232Z,91.19
2023-02-12T10:23:20.594Z,91.35
2023-02-12T10:24:33.983Z,91.13
2023-02-12T10:25:51.677Z,91.43
2023-02-12T10:26:58.750Z,91.57
2023-02-12T10:28:05.480Z,92.08
2023-02-12T10:29:25.551Z,92.70
2023-02-12T10:30:35.222Z,92.11
2023-02-12T10:31:40.823Z,92.11
2023-02-12T10:32:45.681Z,92.28
2023-02-12T10:33:50.357Z,92.58
2023-02-12T10:34:53.745Z,93.10
2023-02-12T10:36:14.024Z,92.74
2023-02-12T10:37:25.492Z,93.43
2023-02-12T10:38:33.435Z,92.51
2023-02-12T10:39:42.838Z,93.43
2023-02-12T10:40:45.275Z,91.91
2023-02-12T10:41:50.054Z,92.29
2023-02-12T10:42:52.457Z,91.83
2023-02-12T10:43:53.887Z,91.47
2023-02-12T10:44:55.322Z,92.50
2023-02-12T10:45:57.344Z,91.88
2023-02-12T10:46:59.124Z,92.12
2023-02-12T10:48:06.436Z,92.00
2023-02-12T10:49:12.183Z,92.59
2023-02-12T10:50:32.803Z,93.66
2023-02-12T10:51:53.779Z,93.45
2023-02-12T10:52:57.900Z,93.55
2023-02-12T10:54:34.242Z,93.27
2023-02-12T10:55:39.492Z,92.86
2023-02-12T10:56:41.108Z,93.69
2023-02-12T10:57:42.582Z,93.45
2023-02-12T10:58:50.099Z,92.46
2023-02-12T10:59:55.194Z,92.76
2023-02-12T11:01:01.127Z,92.96
2023-02-12T11:02:02.837Z,93.37
2023-02-12T11:03:13.068Z,93.79
2023-02-12T11:04:26.842Z,94.48
2023-02-12T11:05:30.760Z,93.30
2023-02-12T11:06:32.707Z,93.60
2023-02-12T11:07:48.975Z,94.00
2023-02-12T11:08:50.478Z,94.42
2023-02-12T11:09:55.055Z,95.09
2023-02-12T11:11:03.909Z,94.38
2023-02-12T11:12:36.047Z,95.41
2023-02-12T11:13:40.565Z,95.89
2023-02-12T11:14:49.161Z,96.09
2023-02-12T11:15:51.202Z,95.96
2023-02-12T11:16:55.078Z,96.30
2023-02-12T11:18:01.061Z,94.26
2023-02-12T11:19:05.773Z,94.36
2023-02-12T11:20:16.349Z,94.71
2023-02-12T11:21:23.108Z,94.24
2023-02-12T11:22:24.527Z,93.53
2023-02-12T11:23:37.791Z,93.28
2023-02-12T11:24:39.327Z,93.66
2023-02-12T11:25:59.479Z,93.21
2023-02-12T11:27:16.199Z,93.26
2023-02-12T11:28:19.437Z,93.40
2023-02-12T11:29:24.447Z,92.76
2023-02-12T11:30:26.216Z,92.27
2023-02-12T11:31:32.953Z,91.48
2023-02-12T11:32:34.457Z,92.16
2023-02-12T11:33:36.855Z,91.96
2023-02-12T11:34:38.450Z,92.72
2023-02-12T11:35:49.401Z,92.26
2023-02-12T11:36:53.409Z,92.22
2023-02-12T11:37:57.625Z,92.64
2023-02-12T11:39:00.979Z,91.43
2023-02-12T11:40:02.972Z,91.84
2023-02-12T11:41:09.370Z,91.89
2023-02-12T11:42:23.900Z,91.02
2023-02-12T11:43:28.780Z,91.56
2023-02-12T11:44:37.029Z,91.54
2023-02-12T11:45:52.541Z,90.38
2023-02-12T11:46:57.841Z,89.92
2023-02-12T11:48:00.316Z,91.13
2023-02-12T11:49:02.503Z,90.70
2023-02-12T11:50:15.923Z,90.46
2023-02-12T11:51:29.680Z,90.15
2023-02-12T11:52:36.741Z,90.45
2023-02-12T11:53:42.893Z,90.98
2023-02-12T11:54:48.400Z,91.34
2023-02-12T11:56:00.832Z,92.17
2023-02-12T11:57:02.443Z,92.31
2023-02-12T11:58:13.586Z,92.61
2023-02-12T11:59:29.562Z,92.28
2023-02-12T12:00:38.954Z,91.95
2023-02-12T12:01:41.756Z,92.79
2023-02-12T12:02:50.288Z,92.14
2023-02-12T12:04:08.388Z,92.93
2023-02-12T12:05:19.179Z,92.40
2023-02-12T12:06:35.845Z,92.75
2023-02-12T12:07:41.366Z,92.40
2023-02-12T12:08:54.190Z,92.06
2023-02-12T12:10:07.395Z,91.60
2023-02-12T12:11:18.069Z,91.78
2023-02-12T12:12:26.469Z,91.24
2023-02-12T12:13:35.203Z,90.34
2023-02-12T12:15:04.394Z,92.54
2023-02-12T12:16:38.572Z,90.73
2023-02-12T12:18:35.804Z,89.19
2023-02-12T12:19:53.051Z,90.14
2023-02-12T12:20:58.153Z,89.75
2023-02-12T12:22:14.526Z,90.79
2023-02-12T12:23:25.257Z,90.58
2023-02-12T12:24:37.460Z,89.43
2023-02-12T12:26:07.332Z,89.00
2023-02-12T12:28:08.000Z,90.91
2023-02-12T12:29:26.692Z,88.96
2023-02-12T12:30:28.059Z,87.19
2023-02-12T12:31:35.819Z,87.40
2023-02-12T12:32:39.501Z,87.09
2023-02-12T12:33:53.729Z,87.25
2023-02-12T12:34:55.173Z,87.40
2023-02-12T12:36:15.437Z,86.48
2023-02-12T12:37:19.884Z,87.34
2023-02-12T12:38:31.597Z,86.99
2023-02-12T12:39:56.142Z,88.06
2023-02-12T12:41:29.382Z,87.93
2023-02-12T12:42:52.845Z,87.52
2023-02-12T12:44:28.379Z,86.83
2023-02-12T12:45:50.204Z,88.11
2023-02-12T12:47:11.883Z,87.73
2023-02-12T12:48:16.275Z,87.90
2023-02-12T12:49:25.518Z,88.35
2023-02-12T12:50:33.765Z,87.82
2023-02-12T12:51:45.458Z,87.54
2023-02-12T12:53:08.176Z,86.85
2023-02-12T12:54:42.029Z,88.67
2023-02-12T12:56:20.388Z,86.90
2023-02-12T12:57:44.221Z,86.28
2023-02-12T12:59:03.915Z,86.76
2023-02-12T13:00:25.952Z,85.91
2023-02-12T13:02:05.446Z,87.22
2023-02-12T13:03:48.079Z,87.76
2023-02-12T13:05:03.247Z,85.37
2023-02-12T13:06:30.765Z,86.50
2023-02-12T13:07:44.146Z,85.15
2023-02-12T13:09:24.134Z,85.74
2023-02-12T13:10:54.607Z,85.05
2023-02-12T13:12:34.110Z,84.61
2023-02-12T13:13:39.682Z,84.94
2023-02-12T13:14:49.799Z,85.71
2023-02-12T13:16:09.038Z,84.55
2023-02-12T13:17:22.434Z,83.10
2023-02-12T13:18:42.679Z,83.42
2023-02-12T13:20:29.175Z,84.52
2023-02-12T13:21:57.833Z,83.86
2023-02-12T13:23:21.756Z,84.22
2023-02-12T13:24:29.224Z,82.67
2023-02-12T13:25:39.541Z,83.30
2023-02-12T13:26:40.898Z,83.19
2023-02-12T13:27:44.735Z,82.55
2023-02-12T13:28:55.073Z,83.10
2023-02-12T13:30:15.727Z,82.53
2023-02-12T13:31:33.141Z,83.43
2023-02-12T13:32:43.229Z,82.82
2023-02-12T13:33:52.602Z,83.36
2023-02-12T13:34:55.970Z,83.50
2023-02-12T13:36:02.357Z,83.37
2023-02-12T13:37:13.102Z,83.72
2023-02-12T13:38:21.372Z,83.04
2023-02-12T13:39:34.574Z,83.25
2023-02-12T13:40:36.373Z,84.68
2023-02-12T13:41:39.872Z,83.17
2023-02-12T13:42:53.446Z,83.25
2023-02-12T13:44:28.791Z,82.69
2023-02-12T13:45:41.472Z,83.72
2023-02-12T13:46:59.591Z,84.10
2023-02-12T13:48:32.096Z,83.84
2023-02-12T13:49:49.929Z,83.83
2023-02-12T13:51:02.317Z,83.87
2023-02-12T13:52:11.227Z,84.38
2023-02-12T13:53:25.842Z,82.73
2023-02-12T13:54:48.843Z,82.77
2023-02-12T13:56:04.302Z,83.37
2023-02-12T13:57:13.544Z,84.17
2023-02-12T13:58:30.963Z,84.50
2023-02-12T13:59:32.447Z,84.95
2023-02-12T14:00:52.067Z,85.18
2023-02-12T14:01:53.599Z,84.29
2023-02-12T14:02:55.348Z,85.64
2023-02-12T14:04:13.314Z,84.42
2023-02-12T14:05:25.615Z,83.99
2023-02-12T14:06:27.101Z,84.14
2023-02-12T14:07:44.119Z,83.74
2023-02-12T14:08:50.856Z,84.12
2023-02-12T14:09:52.537Z,85.33
2023-02-12T14:11:24.852Z,83.01
2023-02-12T14:12:26.233Z,82.88
2023-02-12T14:13:33.998Z,81.76
2023-02-12T14:14:48.505Z,81.51
2023-02-12T14:15:56.235Z,81.42
2023-02-12T14:16:58.114Z,81.24
2023-02-12T14:18:02.637Z,79.82
2023-02-12T14:19:41.956Z,79.58
2023-02-12T14:20:43.435Z,78.95
2023-02-12T14:21:44.950Z,81.45
2023-02-12T14:22:49.411Z,79.04
2023-02-12T14:23:51.845Z,78.76